Wichita Falls, TX (76311)

9:28 PM CDT on October 20, 2014 (GMT -0500)
On the Hill | Change Station
CLOSE
Current Station
Personal Weather Station
Location: Burkburnett, TX
Elevation: 1021 ft
Nearby Weather Stations

Elev 1021 ft 34.05 °N, 98.58 °W | Updated 21 seconds ago

Clear
Clear
71.7 °F
Feels Like 76 °F
N
0.0
Wind Variable Wind from SSE
Gusts 0.0 mph

Today
High -- | Low -- °F
--% Chance of Precip.
Yesterday
High -- | Low -- °F
Precip. -- in
7:43 AM 6:53 PM
Waning Crescent, 8% visible
Pressure 29.99 in
Visibility 10.0 miles
Clouds Clear
Heat Index 76 °F
Dew Point 56 °F
Humidity 58%
Rainfall 0.00 in
Snow Depth Not available.
UV 0 out of 12
Pollen 5.80 out of 12
Air Quality Not available.
Flu Activity Sporadic
METAR KSPS 210152Z 16007KT 10SM CLR 21/15 A3001 RMK AO2 SLP155 T02060150

More Conditions Fewer Conditions

Pressure 29.99 in
Visibility 10.0 miles
Clouds Clear
Heat Index 76 °F
Dew Point 56 °F
Humidity 58%
Rainfall 0.00 in
Snow Depth Not available.
UV 0 out of 12
Pollen 5.80 out of 12
Air Quality Not available.
Flu Activity Sporadic
METAR KSPS 210152Z 16007KT 10SM CLR 21/15 A3001 RMK AO2 SLP155 T02060150

More Conditions Fewer Conditions

10-Day Weather Forecast

Almanac

Astronomy

Oct. 20, 2014 Rise Set
Actual Time 7:43 AM CDT 6:53 PM CDT
Civil Twilight 7:17 AM CDT 7:19 PM CDT
Nautical Twilight 6:48 AM CDT 7:48 PM CDT
Astronomical Twilight 6:19 AM CDT 8:17 PM CDT
Moon 4:41 AM CDT (10/20) 5:10 PM CDT (10/20)
Length of Visible Light 12h 01m
Length of Day
11h 10m
Tomorrow will be 2m 0s shorter.
Waning Crescent, 8% of the Moon is Illuminated
Today
Waning Crescent
Oct 23
New
Oct 30
First Quarter
Nov 6
Full
Nov 14
Last Quarter

Today's Extremes

State Highs State Lows

Community

WunderPhotos

Upload Photos

1,763,575 photos uploaded!

Nearby

Snow Depth

Station Depth Elevation
No new snow has been reported.

Earthquake Activity

City Distance Mag. Time & Date
Luther, Oklahoma 132 miles 2.8 4:33 PM CDT
2014-10-20
Boley, Oklahoma 146 miles 3.5 3:34 PM CDT
2014-10-20
Cushing, Oklahoma 165 miles 2.8 11:41 AM CDT
2014-10-20
Cushing, Oklahoma 165 miles 2.5 10:20 AM CDT
2014-10-20
Minimum magnitude displayed is 2.5.

Coastal Water Temperatures

Place Temperature
No Stations Reporting

Nearby Weather Stations